Time;durP1;ratioP1;P1;durP2;ratioP2;P2;SDS_P1;SDS_P2;PMS_P1;PMS_P2;Temp;Humidity;BMP_temperature;BMP_pressure;BME280_temperature;BME280_humidity;BME280_pressure;Samples;Min_cycle;Max_cycle;Signal;HPM_P1;HPM_P2
2021/08/19 00:02:11;;;;;;;0.10;0.10;;;22.00;59.00;;;;;;5085788;28;20032;-36
2021/08/19 00:04:38;;;;;;;0.20;0.10;;;22.00;58.70;;;;;;5085743;28;20036;-36
2021/08/19 00:07:04;;;;;;;0.10;0.10;;;22.00;59.20;;;;;;5085731;28;20032;-36
2021/08/19 00:09:30;;;;;;;0.15;0.15;;;22.00;58.90;;;;;;5085450;28;20139;-36
2021/08/19 00:11:56;;;;;;;0.25;0.10;;;22.00;58.90;;;;;;5081850;28;20033;-36
2021/08/19 00:14:22;;;;;;;0.20;0.20;;;21.90;58.80;;;;;;5065250;28;20033;-35
2021/08/19 00:16:48;;;;;;;0.63;0.20;;;21.90;58.80;;;;;;5077062;28;20028;-36
2021/08/19 00:19:14;;;;;;;0.10;0.10;;;21.90;59.10;;;;;;5085066;28;20085;-35
2021/08/19 00:21:41;;;;;;;0.17;0.17;;;21.90;58.80;;;;;;5085139;28;20028;-35
2021/08/19 00:24:07;;;;;;;0.10;0.10;;;21.90;58.80;;;;;;5085182;28;20044;-35
2021/08/19 00:26:34;;;;;;;0.15;0.15;;;21.90;58.90;;;;;;5080617;28;20036;-35
2021/08/19 00:29:00;;;;;;;0.10;0.10;;;21.80;59.10;;;;;;5065121;28;20112;-36
2021/08/19 00:31:26;;;;;;;0.25;0.10;;;21.80;59.20;;;;;;5067659;28;20040;-35
2021/08/19 00:33:52;;;;;;;0.10;0.10;;;21.80;59.00;;;;;;5065013;28;20100;-35
2021/08/19 00:36:19;;;;;;;0.10;0.10;;;21.80;59.20;;;;;;5065154;28;20519;-35
2021/08/19 00:38:48;;;;;;;0.07;0.07;;;21.80;59.30;;;;;;5064891;28;20029;-35
2021/08/19 00:41:17;;;;;;;0.20;0.13;;;21.80;59.10;;;;;;5064699;28;20029;-36
2021/08/19 00:43:43;;;;;;;0.20;0.20;;;21.80;59.20;;;;;;5083357;28;20021;-36
2021/08/19 00:46:29;;;;;;;0.10;0.10;;;21.70;58.90;;;;;;5084811;28;20157;-35
2021/08/19 00:49:14;;;;;;;0.22;0.10;;;21.70;59.50;;;;;;5084504;28;20408;-36
2021/08/19 00:51:42;;;;;;;0.20;0.20;;;21.70;59.20;;;;;;5084658;28;20062;-36
2021/08/19 00:54:27;;;;;;;0.20;0.13;;;21.70;59.00;;;;;;5084459;28;20056;-35
2021/08/19 00:56:58;;;;;;;0.10;0.10;;;21.70;59.00;;;;;;5084537;28;20033;-35
2021/08/19 00:59:25;;;;;;;0.10;0.10;;;21.60;58.90;;;;;;5084409;28;20107;-36
2021/08/19 01:01:53;;;;;;;0.10;0.10;;;21.60;58.80;;;;;;5084393;28;20036;-35
2021/08/19 01:04:19;;;;;;;0.10;0.10;;;21.60;59.00;;;;;;5066559;28;20020;-36
2021/08/19 01:06:45;;;;;;;0.20;0.20;;;21.60;59.10;;;;;;5084472;28;20035;-35
2021/08/19 01:09:11;;;;;;;0.10;0.10;;;21.50;59.00;;;;;;5084401;28;20082;-35
2021/08/19 01:11:41;;;;;;;0.30;0.10;;;21.50;59.00;;;;;;5083045;28;20046;-35
2021/08/19 01:14:09;;;;;;;0.17;0.17;;;21.50;59.30;;;;;;5064132;28;20029;-35
2021/08/19 01:16:35;;;;;;;0.25;0.25;;;21.50;59.20;;;;;;5073916;28;20024;-35
2021/08/19 01:19:01;;;;;;;0.10;0.10;;;21.50;59.30;;;;;;5084247;28;20036;-35
2021/08/19 01:21:27;;;;;;;0.20;0.20;;;21.50;59.20;;;;;;5083134;28;20035;-35
2021/08/19 01:23:53;;;;;;;0.13;0.10;;;21.40;59.20;;;;;;5083858;28;20048;-35
2021/08/19 01:26:20;;;;;;;1.42;0.20;;;21.40;59.50;;;;;;5084116;28;20089;-35
2021/08/19 01:28:46;;;;;;;0.10;0.10;;;21.40;59.50;;;;;;5084075;28;20028;-35
2021/08/19 01:31:15;;;;;;;0.10;0.10;;;21.40;59.30;;;;;;5083581;28;20071;-35
2021/08/19 01:33:42;;;;;;;0.10;0.10;;;21.30;59.10;;;;;;5082343;28;20032;-35
2021/08/19 01:36:08;;;;;;;0.10;0.10;;;21.30;59.20;;;;;;5064930;28;20052;-35
2021/08/19 01:38:35;;;;;;;0.10;0.10;;;21.30;59.30;;;;;;5063917;28;20032;-36
2021/08/19 01:41:02;;;;;;;0.10;0.10;;;21.30;59.30;;;;;;5063510;28;20028;-35
2021/08/19 01:43:29;;;;;;;0.10;0.10;;;21.20;59.20;;;;;;5063726;28;20067;-35
2021/08/19 01:45:56;;;;;;;0.10;0.10;;;21.20;59.30;;;;;;5049829;28;20020;-35
2021/08/19 01:48:22;;;;;;;0.15;0.15;;;21.20;59.60;;;;;;5072643;28;20053;-35
2021/08/19 01:50:48;;;;;;;0.10;0.10;;;21.20;59.10;;;;;;5058701;28;20072;-35
2021/08/19 01:53:17;;;;;;;0.10;0.10;;;21.10;59.30;;;;;;5043208;28;20088;-35
2021/08/19 01:55:43;;;;;;;1.58;0.10;;;21.10;59.40;;;;;;5043554;28;20037;-35
2021/08/19 01:58:10;;;;;;;0.35;0.20;;;21.10;60.40;;;;;;5043395;28;20037;-35
2021/08/19 02:00:37;;;;;;;0.20;0.20;;;21.10;61.00;;;;;;5043438;28;20030;-36
2021/08/19 02:03:03;;;;;;;0.20;0.20;;;21.10;60.80;;;;;;5043183;28;20033;-36
2021/08/19 02:05:30;;;;;;;0.20;0.20;;;21.20;61.50;;;;;;5043254;28;20033;-35
2021/08/19 02:07:56;;;;;;;0.20;0.20;;;21.20;61.80;;;;;;5042781;28;20922;-36
2021/08/19 02:10:22;;;;;;;0.10;0.10;;;21.30;61.90;;;;;;5043159;28;20048;-35
2021/08/19 02:12:49;;;;;;;0.20;0.20;;;21.30;61.90;;;;;;5042966;28;20051;-35
2021/08/19 02:15:15;;;;;;;0.85;0.40;;;21.30;62.10;;;;;;5043237;28;20385;-35
2021/08/19 02:17:41;;;;;;;0.10;0.10;;;21.30;62.60;;;;;;5062088;28;20025;-35
2021/08/19 02:20:08;;;;;;;0.40;0.20;;;21.30;62.90;;;;;;5063208;28;20033;-35
2021/08/19 02:22:34;;;;;;;0.28;0.28;;;21.30;62.90;;;;;;5062494;28;20029;-35
2021/08/19 02:25:00;;;;;;;0.15;0.15;;;21.30;62.50;;;;;;5062930;28;20091;-36
2021/08/19 02:27:29;;;;;;;0.20;0.10;;;21.40;62.30;;;;;;5062978;28;20386;-35
2021/08/19 02:29:55;;;;;;;0.17;0.17;;;21.40;62.30;;;;;;5062760;28;20575;-35
2021/08/19 02:32:23;;;;;;;0.10;0.10;;;21.40;62.50;;;;;;5061469;28;20033;-35
2021/08/19 02:34:52;;;;;;;0.17;0.17;;;21.40;62.70;;;;;;5062797;28;20021;-35
2021/08/19 02:37:21;;;;;;;0.10;0.10;;;21.50;62.90;;;;;;5062749;28;20033;-36
2021/08/19 02:39:47;;;;;;;0.20;0.17;;;21.50;63.00;;;;;;5062925;28;20028;-36
2021/08/19 02:42:13;;;;;;;0.20;0.20;;;21.50;63.20;;;;;;5062390;28;20488;-35
2021/08/19 02:44:40;;;;;;;0.10;0.10;;;21.50;63.70;;;;;;5062689;28;20021;-35
2021/08/19 02:47:07;;;;;;;0.20;0.20;;;21.50;63.60;;;;;;5062333;28;20549;-36
2021/08/19 02:49:33;;;;;;;0.20;0.20;;;21.60;64.20;;;;;;5062471;28;20132;-36
2021/08/19 02:52:00;;;;;;;0.10;0.10;;;21.60;64.20;;;;;;5062124;28;20041;-36
2021/08/19 02:54:26;;;;;;;1.05;0.20;;;21.60;64.40;;;;;;5062629;28;20104;-35
2021/08/19 02:56:52;;;;;;;1.00;0.20;;;21.70;64.70;;;;;;5062679;28;20025;-35
2021/08/19 02:59:18;;;;;;;0.30;0.20;;;21.70;64.60;;;;;;5062684;28;20040;-35
2021/08/19 03:01:44;;;;;;;0.35;0.15;;;21.70;64.50;;;;;;5062710;28;20694;-36
2021/08/19 03:04:10;;;;;;;0.30;0.30;;;21.70;64.50;;;;;;5062268;28;20060;-36
2021/08/19 03:06:36;;;;;;;0.20;0.20;;;21.70;64.50;;;;;;5062333;28;20036;-35
2021/08/19 03:09:02;;;;;;;0.20;0.20;;;21.70;64.50;;;;;;5062515;28;20075;-35
2021/08/19 03:11:29;;;;;;;0.50;0.20;;;21.80;64.70;;;;;;5062246;28;20055;-35
2021/08/19 03:13:55;;;;;;;0.40;0.17;;;21.80;64.70;;;;;;5062323;28;20492;-36
2021/08/19 03:16:21;;;;;;;0.10;0.10;;;21.80;64.60;;;;;;5062353;28;20025;-36
2021/08/19 03:18:47;;;;;;;0.20;0.20;;;21.80;64.50;;;;;;5063521;28;20771;-35
2021/08/19 03:21:16;;;;;;;0.50;0.20;;;21.80;64.40;;;;;;5066084;28;20044;-36
2021/08/19 03:23:43;;;;;;;0.20;0.20;;;21.80;64.50;;;;;;5066034;28;20029;-35
2021/08/19 03:26:09;;;;;;;0.30;0.30;;;21.80;64.50;;;;;;5066251;28;20501;-36
2021/08/19 03:28:35;;;;;;;0.20;0.20;;;21.90;64.60;;;;;;5066251;28;20025;-36
2021/08/19 03:31:01;;;;;;;0.40;0.30;;;21.90;64.80;;;;;;5066220;28;20084;-36
2021/08/19 03:33:27;;;;;;;0.32;0.20;;;21.90;64.90;;;;;;5065956;28;20021;-35
2021/08/19 03:35:53;;;;;;;0.50;0.20;;;21.90;64.90;;;;;;5065977;28;20032;-36
2021/08/19 03:38:20;;;;;;;0.60;0.20;;;21.90;64.90;;;;;;5065512;28;20025;-35
2021/08/19 03:40:46;;;;;;;0.30;0.20;;;22.00;64.90;;;;;;5065825;28;20025;-36
2021/08/19 03:43:12;;;;;;;0.32;0.15;;;22.00;64.90;;;;;;5065824;28;20033;-36
2021/08/19 03:45:38;;;;;;;0.30;0.30;;;22.00;64.80;;;;;;5065751;28;20032;-36
2021/08/19 03:48:05;;;;;;;0.20;0.20;;;22.00;64.70;;;;;;5065846;28;20156;-37
2021/08/19 03:50:31;;;;;;;1.10;0.30;;;22.00;65.00;;;;;;5065767;28;20383;-36
2021/08/19 03:52:57;;;;;;;0.40;0.22;;;22.00;64.90;;;;;;5065367;28;20056;-36
2021/08/19 03:55:23;;;;;;;0.30;0.30;;;22.00;64.80;;;;;;5065772;28;20076;-35
2021/08/19 03:57:49;;;;;;;0.20;0.20;;;22.10;64.90;;;;;;5065735;28;20102;-36
2021/08/19 04:00:16;;;;;;;0.30;0.30;;;22.10;64.90;;;;;;5065667;28;20025;-36
2021/08/19 04:02:44;;;;;;;0.20;0.20;;;22.10;64.80;;;;;;5065664;28;20425;-36
2021/08/19 04:05:10;;;;;;;0.30;0.20;;;22.10;64.70;;;;;;5065164;28;20286;-36
2021/08/19 04:07:36;;;;;;;0.80;0.30;;;22.10;64.70;;;;;;5065246;28;20035;-36
2021/08/19 04:10:02;;;;;;;0.20;0.20;;;22.10;64.60;;;;;;5065273;28;20075;-36
2021/08/19 04:12:29;;;;;;;0.20;0.20;;;22.10;64.70;;;;;;5065416;28;20037;-36
2021/08/19 04:14:55;;;;;;;0.43;0.30;;;22.20;64.80;;;;;;5065279;28;20027;-36
2021/08/19 04:17:21;;;;;;;0.20;0.20;;;22.10;64.90;;;;;;5065147;28;20025;-37
2021/08/19 04:19:47;;;;;;;0.45;0.28;;;22.20;64.80;;;;;;5065095;28;20037;-36
2021/08/19 04:22:13;;;;;;;0.50;0.32;;;22.20;64.80;;;;;;5065053;28;20021;-35
2021/08/19 04:24:39;;;;;;;0.35;0.30;;;22.20;65.00;;;;;;5064877;28;20025;-36
2021/08/19 04:27:05;;;;;;;0.30;0.30;;;22.20;65.00;;;;;;5065252;28;20029;-36
2021/08/19 04:29:33;;;;;;;0.20;0.20;;;22.20;65.00;;;;;;5063884;28;20024;-36
2021/08/19 04:32:00;;;;;;;0.30;0.30;;;22.20;65.10;;;;;;5065111;28;20040;-36
2021/08/19 04:34:27;;;;;;;;;;;22.20;65.10;;;;;;5065276;28;20051;-36
2021/08/19 04:36:53;;;;;;;0.20;0.20;;;22.20;65.30;;;;;;5064894;28;19904;-36
2021/08/19 04:39:19;;;;;;;0.45;0.35;;;22.30;65.30;;;;;;5064114;28;20199;-36
2021/08/19 04:41:45;;;;;;;1.75;0.30;;;22.30;65.00;;;;;;5064576;28;20490;-35
2021/08/19 04:44:11;;;;;;;0.30;0.30;;;22.30;64.90;;;;;;5064439;28;20025;-36
2021/08/19 04:46:38;;;;;;;0.20;0.20;;;22.30;64.90;;;;;;5064871;28;20029;-36
2021/08/19 04:49:06;;;;;;;0.20;0.20;;;22.30;64.90;;;;;;5064510;28;20072;-36
2021/08/19 04:51:36;;;;;;;0.20;0.20;;;22.30;64.90;;;;;;5064280;28;20048;-36
2021/08/19 04:54:03;;;;;;;0.28;0.28;;;22.30;64.70;;;;;;5064118;28;20025;-35
2021/08/19 04:56:36;;;;;;;0.17;0.17;;;22.30;64.80;;;;;;5064483;28;20029;-36
2021/08/19 04:59:05;;;;;;;0.28;0.28;;;22.30;64.70;;;;;;5064436;28;20033;-36
2021/08/19 05:01:32;;;;;;;0.65;0.40;;;22.30;64.80;;;;;;5064375;28;20025;-36
2021/08/19 05:04:01;;;;;;;0.57;0.23;;;22.30;65.00;;;;;;5064166;28;20040;-36
2021/08/19 05:06:27;;;;;;;0.50;0.30;;;22.30;64.80;;;;;;5063929;28;20590;-36
2021/08/19 05:08:54;;;;;;;0.25;0.20;;;22.40;64.90;;;;;;5057299;28;20029;-36
2021/08/19 05:11:21;;;;;;;0.30;0.30;;;22.40;65.10;;;;;;5064035;28;20055;-36
2021/08/19 05:13:48;;;;;;;0.35;0.30;;;22.40;65.10;;;;;;5064037;28;20048;-36
2021/08/19 05:16:14;;;;;;;0.30;0.30;;;22.40;65.10;;;;;;5063730;28;20036;-36
2021/08/19 05:18:40;;;;;;;0.20;0.20;;;22.40;65.10;;;;;;5063976;28;20025;-36
2021/08/19 05:21:10;;;;;;;0.30;0.28;;;22.40;65.10;;;;;;5063866;28;20025;-36
2021/08/19 05:23:36;;;;;;;0.30;0.30;;;22.40;65.10;;;;;;5063771;28;20036;-36
2021/08/19 05:26:02;;;;;;;0.20;0.20;;;22.40;65.00;;;;;;5063890;28;20025;-36
2021/08/19 05:28:28;;;;;;;0.30;0.30;;;22.40;64.90;;;;;;5063939;28;20060;-36
2021/08/19 05:30:55;;;;;;;0.35;0.20;;;22.40;64.80;;;;;;5056986;28;20320;-36
2021/08/19 05:33:21;;;;;;;0.30;0.30;;;22.40;64.70;;;;;;5063729;28;20027;-36
2021/08/19 05:35:47;;;;;;;0.38;0.30;;;22.50;64.70;;;;;;5063172;28;20040;-36
2021/08/19 05:38:13;;;;;;;0.30;0.30;;;22.40;64.70;;;;;;5063657;28;20025;-36
2021/08/19 05:40:39;;;;;;;0.25;0.25;;;22.50;64.70;;;;;;5062693;28;20033;-36
2021/08/19 05:43:06;;;;;;;1.35;0.30;;;22.40;64.70;;;;;;5063040;28;20033;-36
2021/08/19 05:45:35;;;;;;;0.20;0.20;;;22.50;64.70;;;;;;5063387;28;20051;-36
2021/08/19 05:48:01;;;;;;;0.30;0.30;;;22.50;64.70;;;;;;5063387;28;20045;-36
2021/08/19 05:50:28;;;;;;;0.20;0.20;;;22.50;64.80;;;;;;5063510;28;20036;-36
2021/08/19 05:52:54;;;;;;;1.38;0.30;;;22.50;65.00;;;;;;5063200;28;20021;-36
2021/08/19 05:55:21;;;;;;;0.60;0.20;;;22.50;64.90;;;;;;5062858;28;20075;-36
2021/08/19 05:57:47;;;;;;;0.20;0.20;;;22.50;65.00;;;;;;5063205;28;20021;-36
2021/08/19 06:00:14;;;;;;;0.30;0.30;;;22.50;64.90;;;;;;5062498;28;20108;-35
2021/08/19 06:02:40;;;;;;;0.85;0.20;;;22.50;64.90;;;;;;5043199;28;20132;-36
2021/08/19 06:05:07;;;;;;;0.20;0.20;;;22.50;64.90;;;;;;5042892;28;20025;-36
2021/08/19 06:07:33;;;;;;;0.30;0.30;;;22.50;64.80;;;;;;5042903;28;20037;-35
2021/08/19 06:09:59;;;;;;;1.58;0.30;;;22.50;64.70;;;;;;5042817;28;20045;-36
2021/08/19 06:12:25;;;;;;;0.30;0.30;;;22.50;64.60;;;;;;5042819;28;20025;-35
2021/08/19 06:14:51;;;;;;;0.30;0.30;;;22.50;64.50;;;;;;5042904;28;20049;-36
2021/08/19 06:17:18;;;;;;;0.57;0.30;;;22.50;64.60;;;;;;5058649;28;20031;-36
2021/08/19 06:19:44;;;;;;;0.37;0.37;;;22.50;64.50;;;;;;5062762;28;20297;-36
2021/08/19 06:22:10;;;;;;;0.82;0.38;;;22.50;64.60;;;;;;5062573;28;20032;-36
2021/08/19 06:24:36;;;;;;;1.50;0.30;;;22.50;64.60;;;;;;5062499;28;20100;-36
2021/08/19 06:27:03;;;;;;;0.85;0.30;;;22.60;64.60;;;;;;5062663;28;20032;-36
2021/08/19 06:29:29;;;;;;;0.45;0.20;;;22.50;64.60;;;;;;5062089;28;20036;-36
2021/08/19 06:31:55;;;;;;;0.30;0.30;;;22.50;64.60;;;;;;5061777;28;20065;-36
2021/08/19 06:34:21;;;;;;;0.20;0.20;;;22.50;64.60;;;;;;5062547;28;20032;-36
2021/08/19 06:36:47;;;;;;;0.20;0.20;;;22.60;64.70;;;;;;5062454;28;20140;-36
2021/08/19 06:39:13;;;;;;;0.30;0.30;;;22.60;64.80;;;;;;5062554;28;20039;-36
2021/08/19 06:41:40;;;;;;;0.30;0.30;;;22.60;64.80;;;;;;5062366;28;20036;-36
2021/08/19 06:44:06;;;;;;;0.30;0.30;;;22.60;64.80;;;;;;5062641;28;20028;-36
2021/08/19 06:46:32;;;;;;;0.37;0.30;;;22.60;64.80;;;;;;5062429;28;20067;-36
2021/08/19 06:48:58;;;;;;;1.17;0.30;;;22.60;64.80;;;;;;5062419;28;20053;-36
2021/08/19 06:51:24;;;;;;;0.20;0.20;;;22.60;64.80;;;;;;5062605;28;20082;-36
2021/08/19 06:53:50;;;;;;;1.00;0.30;;;22.60;64.80;;;;;;5067168;28;20048;-36
2021/08/19 06:56:17;;;;;;;0.30;0.30;;;22.60;64.70;;;;;;5068700;28;20033;-36
2021/08/19 06:58:43;;;;;;;0.22;0.22;;;22.60;64.70;;;;;;5069043;28;20070;-36
2021/08/19 07:01:09;;;;;;;0.30;0.30;;;22.60;64.70;;;;;;5068925;28;20025;-36
2021/08/19 07:03:35;;;;;;;0.30;0.20;;;22.60;64.60;;;;;;5069154;28;20043;-36
2021/08/19 07:06:01;;;;;;;0.65;0.43;;;22.60;64.60;;;;;;5068751;28;20068;-35
2021/08/19 07:08:27;;;;;;;0.30;0.30;;;22.60;64.60;;;;;;5068803;28;20025;-36
2021/08/19 07:10:54;;;;;;;0.52;0.30;;;22.60;64.60;;;;;;5068879;28;20075;-36
2021/08/19 07:13:20;;;;;;;0.50;0.35;;;22.60;64.70;;;;;;5068997;28;20032;-36
2021/08/19 07:15:46;;;;;;;0.65;0.40;;;22.60;64.60;;;;;;5068691;28;20025;-36
2021/08/19 07:18:12;;;;;;;0.30;0.20;;;22.60;64.70;;;;;;5068946;28;20017;-36
2021/08/19 07:20:39;;;;;;;0.40;0.30;;;22.60;64.70;;;;;;5068899;28;20068;-36
2021/08/19 07:23:06;;;;;;;0.30;0.30;;;22.60;64.70;;;;;;5068666;28;20262;-36
2021/08/19 07:25:32;;;;;;;0.67;0.30;;;22.60;64.70;;;;;;5068689;28;20397;-36
2021/08/19 07:27:58;;;;;;;0.25;0.20;;;22.60;64.70;;;;;;5068704;28;20025;-36
2021/08/19 07:30:24;;;;;;;0.32;0.32;;;22.60;64.70;;;;;;5068529;28;20039;-36
2021/08/19 07:32:50;;;;;;;0.98;0.32;;;22.60;64.70;;;;;;5068287;28;20029;-36
2021/08/19 07:35:16;;;;;;;0.45;0.38;;;22.60;64.70;;;;;;5068787;28;20060;-36
2021/08/19 07:37:50;;;;;;;0.40;0.40;;;22.60;64.70;;;;;;5067415;28;20048;-36
2021/08/19 07:40:21;;;;;;;0.43;0.25;;;22.60;64.70;;;;;;5068840;28;20028;-36
2021/08/19 07:42:47;;;;;;;0.52;0.40;;;22.60;64.70;;;;;;5068859;28;20085;-36
2021/08/19 07:45:14;;;;;;;0.30;0.30;;;22.60;64.60;;;;;;5068932;28;20039;-36
2021/08/19 07:47:40;;;;;;;0.32;0.30;;;22.60;64.60;;;;;;5068227;28;20049;-36
2021/08/19 07:50:07;;;;;;;0.27;0.27;;;22.60;64.60;;;;;;5068541;28;20585;-36
2021/08/19 07:52:33;;;;;;;0.35;0.35;;;22.60;64.60;;;;;;5050729;28;20059;-36
2021/08/19 07:54:59;;;;;;;0.40;0.30;;;22.60;64.60;;;;;;5068703;28;20123;-36
2021/08/19 07:57:25;;;;;;;0.63;0.30;;;22.60;64.70;;;;;;5068256;28;20051;-36
2021/08/19 07:59:52;;;;;;;0.38;0.38;;;22.60;64.70;;;;;;5068593;28;20079;-36
2021/08/19 08:02:18;;;;;;;0.38;0.30;;;22.60;64.70;;;;;;5068633;28;20059;-36
2021/08/19 08:04:44;;;;;;;0.50;0.30;;;22.60;64.60;;;;;;5066197;28;20029;-36
2021/08/19 08:07:10;;;;;;;0.20;0.20;;;22.60;64.60;;;;;;5065347;28;20039;-36
2021/08/19 08:09:36;;;;;;;0.30;0.30;;;22.60;64.70;;;;;;5065128;28;20025;-36
2021/08/19 08:12:03;;;;;;;0.20;0.20;;;22.70;64.70;;;;;;5065398;28;20043;-36
2021/08/19 08:14:29;;;;;;;0.30;0.30;;;22.60;64.70;;;;;;5065545;28;20166;-36
2021/08/19 08:16:55;;;;;;;0.40;0.30;;;22.70;64.70;;;;;;5064979;28;20272;-36
2021/08/19 08:19:22;;;;;;;0.68;0.40;;;22.70;64.70;;;;;;5065290;28;20261;-36
2021/08/19 08:21:48;;;;;;;0.30;0.30;;;22.70;64.80;;;;;;5065217;28;20032;-36
2021/08/19 08:24:14;;;;;;;0.40;0.35;;;22.70;64.70;;;;;;5060718;28;20033;-36
2021/08/19 08:26:41;;;;;;;1.65;0.30;;;22.70;64.80;;;;;;5064816;28;20060;-36
2021/08/19 08:29:07;;;;;;;0.40;0.40;;;22.60;64.70;;;;;;5065043;28;20051;-36
2021/08/19 08:31:34;;;;;;;1.02;0.47;;;22.70;64.70;;;;;;5064889;28;20037;-36
2021/08/19 08:34:00;;;;;;;0.52;0.32;;;22.70;64.70;;;;;;5065160;28;20025;-36
2021/08/19 08:36:26;;;;;;;0.40;0.40;;;22.70;64.70;;;;;;5064324;28;20028;-36
2021/08/19 08:38:52;;;;;;;0.75;0.30;;;22.70;64.70;;;;;;5063724;28;20024;-36
2021/08/19 08:41:22;;;;;;;0.40;0.40;;;22.70;64.80;;;;;;5064741;28;20033;-37
2021/08/19 08:43:48;;;;;;;0.40;0.40;;;22.70;64.70;;;;;;5057421;28;20112;-36
2021/08/19 08:46:16;;;;;;;0.30;0.30;;;22.70;64.80;;;;;;5064622;28;20056;-36
2021/08/19 08:48:43;;;;;;;0.50;0.28;;;22.70;64.80;;;;;;5064158;28;20052;-36
2021/08/19 08:51:09;;;;;;;0.40;0.40;;;22.70;64.80;;;;;;5064560;28;20063;-36
2021/08/19 08:53:35;;;;;;;0.30;0.30;;;22.70;64.80;;;;;;5055132;28;20110;-36
2021/08/19 08:56:02;;;;;;;0.68;0.40;;;22.70;64.80;;;;;;5063292;28;20032;-36
2021/08/19 08:58:28;;;;;;;0.40;0.40;;;22.70;64.80;;;;;;5064301;28;20028;-36
2021/08/19 09:00:54;;;;;;;0.30;0.20;;;22.70;64.80;;;;;;5064349;28;20025;-36
2021/08/19 09:03:20;;;;;;;0.30;0.30;;;22.70;64.80;;;;;;5064412;28;20025;-36
2021/08/19 09:05:51;;;;;;;0.30;0.30;;;22.70;64.90;;;;;;5046259;28;20040;-36
2021/08/19 09:08:22;;;;;;;0.50;0.30;;;22.70;64.90;;;;;;5063205;28;20704;-36
2021/08/19 09:10:49;;;;;;;0.35;0.35;;;22.70;64.90;;;;;;5064460;28;20052;-36
2021/08/19 09:13:16;;;;;;;0.40;0.40;;;22.70;64.90;;;;;;5064294;28;20021;-36
2021/08/19 09:15:44;;;;;;;0.60;0.35;;;22.70;64.90;;;;;;5063333;28;20039;-36
2021/08/19 09:18:10;;;;;;;;;;;22.70;64.90;;;;;;5064279;28;20021;-36
2021/08/19 09:20:39;;;;;;;0.30;0.30;;;22.70;64.80;;;;;;5063978;28;20000;-36
2021/08/19 09:23:10;;;;;;;0.40;0.40;;;22.70;64.90;;;;;;5063945;28;20028;-36
2021/08/19 09:25:38;;;;;;;0.30;0.30;;;22.70;64.90;;;;;;5063657;28;20044;-37
2021/08/19 09:28:29;;;;;;;0.40;0.40;;;22.70;64.90;;;;;;5063884;28;20032;-36
2021/08/19 09:30:57;;;;;;;1.95;0.50;;;22.70;64.90;;;;;;5063713;28;20044;-36
2021/08/19 09:33:29;;;;;;;0.40;0.40;;;22.70;64.90;;;;;;5064019;28;20465;-36
2021/08/19 09:36:01;;;;;;;0.40;0.40;;;22.70;65.00;;;;;;5054859;28;20029;-36
2021/08/19 09:38:43;;;;;;;0.40;0.35;;;22.70;65.00;;;;;;5062367;28;20104;-36
2021/08/19 09:41:19;;;;;;;0.30;0.30;;;22.70;65.00;;;;;;5063660;28;20041;-36
2021/08/19 09:43:47;;;;;;;0.57;0.30;;;22.70;65.00;;;;;;5063877;28;20156;-36
2021/08/19 09:46:15;;;;;;;0.50;0.30;;;22.70;64.90;;;;;;5063202;28;20037;-37
2021/08/19 09:48:42;;;;;;;0.20;0.20;;;22.70;65.00;;;;;;5063125;28;20155;-36
2021/08/19 09:51:14;;;;;;;;;;;22.70;65.00;;;;;;5063964;28;20037;-36
2021/08/19 09:53:47;;;;;;;0.30;0.30;;;22.70;65.00;;;;;;5063552;28;19909;-36
2021/08/19 09:56:14;;;;;;;0.30;0.25;;;22.70;65.00;;;;;;5063216;28;20043;-36
2021/08/19 09:58:40;;;;;;;0.30;0.30;;;22.70;65.00;;;;;;5045126;28;20039;-36
2021/08/19 10:01:06;;;;;;;0.40;0.40;;;22.70;65.00;;;;;;5063435;28;20029;-36
2021/08/19 10:03:32;;;;;;;0.35;0.35;;;22.70;65.00;;;;;;5063418;28;20509;-36
2021/08/19 10:05:59;;;;;;;0.30;0.30;;;22.80;65.00;;;;;;5063454;28;20043;-36
2021/08/19 10:08:25;;;;;;;0.30;0.30;;;22.70;65.00;;;;;;5062980;28;20029;-36
2021/08/19 10:10:53;;;;;;;0.57;0.35;;;22.70;65.00;;;;;;5062887;28;20029;-36
2021/08/19 10:13:19;;;;;;;0.45;0.45;;;22.70;65.00;;;;;;5063232;28;20025;-36
2021/08/19 10:15:46;;;;;;;0.30;0.30;;;22.70;65.00;;;;;;5063250;28;20393;-36
2021/08/19 10:18:19;;;;;;;0.40;0.38;;;22.70;65.00;;;;;;5063099;28;20017;-36
2021/08/19 10:20:47;;;;;;;0.30;0.30;;;22.70;65.00;;;;;;5045240;28;20032;-36
2021/08/19 10:23:13;;;;;;;0.30;0.30;;;22.70;65.00;;;;;;5045061;28;20025;-36
2021/08/19 10:25:39;;;;;;;1.30;0.55;;;22.70;65.00;;;;;;5062651;28;20120;-36
2021/08/19 10:28:19;;;;;;;0.40;0.40;;;22.70;65.00;;;;;;5044560;28;20025;-36
2021/08/19 10:30:53;;;;;;;0.50;0.30;;;22.70;65.00;;;;;;5038273;28;20033;-36
2021/08/19 10:33:37;;;;;;;0.30;0.30;;;22.70;65.00;;;;;;5055207;28;20048;-36
2021/08/19 10:36:13;;;;;;;0.40;0.40;;;22.70;65.00;;;;;;5062764;28;20041;-36
2021/08/19 10:38:39;;;;;;;0.40;0.30;;;22.70;65.00;;;;;;5062409;28;20025;-36
2021/08/19 10:41:30;;;;;;;0.57;0.40;;;22.70;65.00;;;;;;5062914;28;20074;-36
2021/08/19 10:44:09;;;;;;;1.35;0.30;;;22.70;65.10;;;;;;5062633;28;20021;-36
2021/08/19 10:46:52;;;;;;;0.63;0.30;;;22.80;65.20;;;;;;5062663;28;20097;-36
2021/08/19 10:49:36;;;;;;;0.40;0.40;;;22.70;65.10;;;;;;5062192;28;20059;-36
2021/08/19 10:52:09;;;;;;;0.28;0.28;;;22.70;65.00;;;;;;5062531;28;20045;-36
2021/08/19 10:54:42;;;;;;;0.52;0.28;;;22.70;65.00;;;;;;5062357;28;20055;-36
2021/08/19 10:57:21;;;;;;;0.50;0.35;;;22.70;65.00;;;;;;5062681;28;20055;-36
2021/08/19 11:00:07;;;;;;;0.98;0.30;;;22.80;65.10;;;;;;5062575;28;20025;-36
2021/08/19 11:02:46;;;;;;;0.40;0.40;;;22.70;65.10;;;;;;5062727;28;20087;-36
2021/08/19 11:05:32;;;;;;;0.30;0.30;;;22.70;65.80;;;;;;5062427;28;20120;-36
2021/08/19 11:08:03;;;;;;;0.22;0.22;;;22.70;65.10;;;;;;5062149;28;20021;-36
2021/08/19 11:10:35;;;;;;;0.28;0.28;;;22.70;65.10;;;;;;5062508;28;20037;-36
2021/08/19 11:13:05;;;;;;;0.30;0.30;;;22.70;65.10;;;;;;5062335;28;20062;-37
2021/08/19 11:15:32;;;;;;;0.30;0.25;;;22.70;65.10;;;;;;5061318;28;20029;-36
2021/08/19 11:17:58;;;;;;;0.47;0.43;;;22.70;65.20;;;;;;5042303;28;20041;-36
2021/08/19 11:20:29;;;;;;;0.60;0.40;;;22.70;65.10;;;;;;5043782;28;20037;-36
2021/08/19 11:23:09;;;;;;;0.40;0.40;;;22.70;65.10;;;;;;5062269;28;20059;-36
2021/08/19 11:25:37;;;;;;;0.40;0.40;;;22.70;65.20;;;;;;5062360;28;20048;-36
2021/08/19 11:28:16;;;;;;;0.30;0.30;;;22.70;65.20;;;;;;5062078;28;20060;-35
2021/08/19 11:30:50;;;;;;;0.40;0.40;;;22.70;65.30;;;;;;5053938;28;20041;-36
2021/08/19 11:33:19;;;;;;;0.38;0.38;;;22.70;65.30;;;;;;5062411;28;20569;-36
2021/08/19 11:35:47;;;;;;;0.40;0.40;;;22.70;65.30;;;;;;5062358;28;20050;-36
2021/08/19 11:38:21;;;;;;;0.30;0.30;;;22.70;65.20;;;;;;5062039;28;20027;-36
2021/08/19 11:40:49;;;;;;;0.57;0.43;;;22.70;65.20;;;;;;5059662;28;20143;-36
2021/08/19 11:43:24;;;;;;;0.40;0.20;;;22.70;65.10;;;;;;5066286;28;20067;-36
2021/08/19 11:45:52;;;;;;;0.50;0.50;;;22.70;65.10;;;;;;5066226;28;20029;-36
2021/08/19 11:48:20;;;;;;;0.43;0.40;;;22.70;65.10;;;;;;5048001;28;20043;-36
2021/08/19 11:50:52;;;;;;;0.40;0.38;;;22.80;65.20;;;;;;5047755;28;20033;-36
2021/08/19 11:53:19;;;;;;;0.30;0.30;;;22.70;65.20;;;;;;5047727;28;20032;-36
2021/08/19 11:55:45;;;;;;;0.30;0.30;;;22.70;65.20;;;;;;5065644;28;20033;-36
2021/08/19 11:58:25;;;;;;;0.95;0.40;;;22.70;65.20;;;;;;5065758;28;20033;-36
2021/08/19 12:01:05;;;;;;;0.93;0.40;;;22.70;65.20;;;;;;5048365;28;20440;-36
2021/08/19 12:03:41;;;;;;;0.30;0.30;;;22.70;66.00;;;;;;5065704;28;20799;-36
2021/08/19 12:06:18;;;;;;;0.40;0.40;;;22.70;65.20;;;;;;5065656;28;20029;-36
2021/08/19 12:08:55;;;;;;;0.87;0.33;;;22.70;65.20;;;;;;5061771;28;20020;-36
2021/08/19 12:11:25;;;;;;;0.40;0.40;;;22.70;65.20;;;;;;5085432;28;20032;-36
2021/08/19 12:13:52;;;;;;;0.30;0.30;;;22.70;65.20;;;;;;5085553;28;20048;-36
2021/08/19 12:16:22;;;;;;;0.30;0.30;;;22.70;65.20;;;;;;5060179;28;20025;-36
2021/08/19 12:19:08;;;;;;;0.90;0.30;;;22.70;65.20;;;;;;5031524;28;20025;-36
2021/08/19 12:21:35;;;;;;;0.55;0.30;;;22.70;65.30;;;;;;5075298;28;20024;-36
2021/08/19 12:24:17;;;;;;;0.40;0.40;;;22.80;65.30;;;;;;5082633;28;20028;-36
2021/08/19 12:26:43;;;;;;;0.47;0.40;;;22.70;65.30;;;;;;5085260;28;20024;-36
2021/08/19 12:29:17;;;;;;;0.30;0.30;;;22.70;65.20;;;;;;5085128;28;20028;-36
2021/08/19 12:31:45;;;;;;;0.55;0.40;;;22.70;65.20;;;;;;5068384;28;20393;-38
2021/08/19 12:34:11;;;;;;;0.43;0.32;;;22.80;65.30;;;;;;5067350;28;20638;-36
2021/08/19 12:36:37;;;;;;;0.55;0.32;;;22.70;65.10;;;;;;5085131;28;20052;-36
2021/08/19 12:39:45;;;;;;;0.23;0.23;;;22.70;65.20;;;;;;5083961;28;20021;-35
2021/08/19 12:42:13;;;;;;;0.40;0.40;;;22.70;65.20;;;;;;4982827;28;20312;-36
2021/08/19 12:44:39;;;;;;;0.30;0.30;;;22.70;65.20;;;;;;4983326;28;20049;-36
2021/08/19 12:47:05;;;;;;;0.40;0.40;;;22.70;65.20;;;;;;4983447;28;20031;-36
2021/08/19 12:49:33;;;;;;;0.40;0.30;;;22.70;65.20;;;;;;4983074;28;20047;-36
2021/08/19 12:52:22;;;;;;;1.50;0.30;;;22.70;65.30;;;;;;4982685;28;20046;-36
2021/08/19 12:55:16;;;;;;;1.55;0.40;;;22.70;65.40;;;;;;4983034;28;20027;-35